sensor_id;sensor_type;location;lat;lon;timestamp;P1;durP1;ratioP1;P2;durP2;ratioP2
35634;SDS011;21757;43.610;1.440;2023-03-01T00:01:23;15.82;;;10.45;;
35634;SDS011;21757;43.610;1.440;2023-03-01T00:03:50;15.23;;;9.35;;
35634;SDS011;21757;43.610;1.440;2023-03-01T00:06:16;15.23;;;9.32;;
35634;SDS011;21757;43.610;1.440;2023-03-01T00:08:42;15.43;;;9.68;;
35634;SDS011;21757;43.610;1.440;2023-03-01T00:11:27;17.80;;;10.68;;
35634;SDS011;21757;43.610;1.440;2023-03-01T00:13:55;19.02;;;10.20;;
35634;SDS011;21757;43.610;1.440;2023-03-01T00:16:25;15.88;;;10.23;;
35634;SDS011;21757;43.610;1.440;2023-03-01T00:18:55;18.00;;;11.10;;
35634;SDS011;21757;43.610;1.440;2023-03-01T00:21:21;16.95;;;11.13;;
35634;SDS011;21757;43.610;1.440;2023-03-01T00:23:48;18.08;;;10.40;;
35634;SDS011;21757;43.610;1.440;2023-03-01T00:26:16;15.68;;;10.18;;
35634;SDS011;21757;43.610;1.440;2023-03-01T00:28:43;16.17;;;10.15;;
35634;SDS011;21757;43.610;1.440;2023-03-01T00:31:10;20.30;;;11.07;;
35634;SDS011;21757;43.610;1.440;2023-03-01T00:33:38;18.30;;;10.27;;
35634;SDS011;21757;43.610;1.440;2023-03-01T00:36:04;16.25;;;10.63;;
35634;SDS011;21757;43.610;1.440;2023-03-01T00:38:34;15.90;;;10.23;;
35634;SDS011;21757;43.610;1.440;2023-03-01T00:41:08;16.60;;;10.38;;
35634;SDS011;21757;43.610;1.440;2023-03-01T00:43:35;18.27;;;10.90;;
35634;SDS011;21757;43.610;1.440;2023-03-01T00:46:06;18.83;;;11.23;;
35634;SDS011;21757;43.610;1.440;2023-03-01T00:48:35;19.17;;;10.38;;
35634;SDS011;21757;43.610;1.440;2023-03-01T00:51:04;19.40;;;10.27;;
35634;SDS011;21757;43.610;1.440;2023-03-01T00:53:31;14.50;;;9.88;;
35634;SDS011;21757;43.610;1.440;2023-03-01T00:55:57;17.23;;;10.45;;
35634;SDS011;21757;43.610;1.440;2023-03-01T00:58:23;16.58;;;10.45;;
35634;SDS011;21757;43.610;1.440;2023-03-01T01:00:49;13.25;;;9.15;;
35634;SDS011;21757;43.610;1.440;2023-03-01T01:03:15;15.45;;;9.75;;
35634;SDS011;21757;43.610;1.440;2023-03-01T01:05:40;16.60;;;11.05;;
35634;SDS011;21757;43.610;1.440;2023-03-01T01:08:06;15.75;;;9.80;;
35634;SDS011;21757;43.610;1.440;2023-03-01T01:10:33;14.60;;;9.70;;
35634;SDS011;21757;43.610;1.440;2023-03-01T01:12:59;17.77;;;10.05;;
35634;SDS011;21757;43.610;1.440;2023-03-01T01:15:25;15.48;;;10.57;;
35634;SDS011;21757;43.610;1.440;2023-03-01T01:17:51;13.82;;;9.68;;
35634;SDS011;21757;43.610;1.440;2023-03-01T01:20:16;16.65;;;10.38;;
35634;SDS011;21757;43.610;1.440;2023-03-01T01:22:42;15.02;;;10.13;;
35634;SDS011;21757;43.610;1.440;2023-03-01T01:25:08;16.77;;;10.05;;
35634;SDS011;21757;43.610;1.440;2023-03-01T01:27:35;23.45;;;11.88;;
35634;SDS011;21757;43.610;1.440;2023-03-01T01:30:01;15.90;;;9.88;;
35634;SDS011;21757;43.610;1.440;2023-03-01T01:32:29;14.82;;;10.07;;
35634;SDS011;21757;43.610;1.440;2023-03-01T01:34:55;16.17;;;9.43;;
35634;SDS011;21757;43.610;1.440;2023-03-01T01:37:21;16.52;;;10.25;;
35634;SDS011;21757;43.610;1.440;2023-03-01T01:39:46;15.13;;;9.85;;
35634;SDS011;21757;43.610;1.440;2023-03-01T01:42:16;15.70;;;10.80;;
35634;SDS011;21757;43.610;1.440;2023-03-01T01:44:44;15.53;;;9.13;;
35634;SDS011;21757;43.610;1.440;2023-03-01T01:47:15;14.30;;;8.70;;
35634;SDS011;21757;43.610;1.440;2023-03-01T01:49:51;15.13;;;9.95;;
35634;SDS011;21757;43.610;1.440;2023-03-01T01:57:47;18.70;;;11.32;;
35634;SDS011;21757;43.610;1.440;2023-03-01T02:00:15;17.92;;;9.77;;
35634;SDS011;21757;43.610;1.440;2023-03-01T02:02:44;15.85;;;9.52;;
35634;SDS011;21757;43.610;1.440;2023-03-01T02:05:24;13.13;;;9.52;;
35634;SDS011;21757;43.610;1.440;2023-03-01T02:08:13;13.45;;;9.13;;
35634;SDS011;21757;43.610;1.440;2023-03-01T02:10:41;14.25;;;9.10;;
35634;SDS011;21757;43.610;1.440;2023-03-01T02:13:07;12.75;;;8.98;;
35634;SDS011;21757;43.610;1.440;2023-03-01T02:15:34;12.27;;;9.10;;
35634;SDS011;21757;43.610;1.440;2023-03-01T02:18:03;12.65;;;9.50;;
35634;SDS011;21757;43.610;1.440;2023-03-01T02:20:33;15.43;;;9.70;;
35634;SDS011;21757;43.610;1.440;2023-03-01T02:23:05;13.93;;;9.60;;
35634;SDS011;21757;43.610;1.440;2023-03-01T02:30:41;16.08;;;10.02;;
35634;SDS011;21757;43.610;1.440;2023-03-01T02:33:27;13.85;;;9.45;;
35634;SDS011;21757;43.610;1.440;2023-03-01T02:35:57;15.73;;;10.33;;
35634;SDS011;21757;43.610;1.440;2023-03-01T02:38:26;14.77;;;10.25;;
35634;SDS011;21757;43.610;1.440;2023-03-01T02:40:53;16.38;;;10.13;;
35634;SDS011;21757;43.610;1.440;2023-03-01T02:43:21;14.40;;;9.23;;
35634;SDS011;21757;43.610;1.440;2023-03-01T02:45:51;15.63;;;8.93;;
35634;SDS011;21757;43.610;1.440;2023-03-01T02:48:18;16.77;;;9.70;;
35634;SDS011;21757;43.610;1.440;2023-03-01T02:53:42;15.95;;;9.13;;
35634;SDS011;21757;43.610;1.440;2023-03-01T02:56:25;14.45;;;9.40;;
35634;SDS011;21757;43.610;1.440;2023-03-01T02:58:51;17.30;;;10.02;;
35634;SDS011;21757;43.610;1.440;2023-03-01T03:01:18;18.25;;;9.93;;
35634;SDS011;21757;43.610;1.440;2023-03-01T03:03:44;14.70;;;9.75;;
35634;SDS011;21757;43.610;1.440;2023-03-01T03:06:10;15.27;;;10.25;;
35634;SDS011;21757;43.610;1.440;2023-03-01T03:08:36;14.55;;;10.05;;
35634;SDS011;21757;43.610;1.440;2023-03-01T03:11:01;15.00;;;10.07;;
35634;SDS011;21757;43.610;1.440;2023-03-01T03:13:27;14.60;;;9.90;;
35634;SDS011;21757;43.610;1.440;2023-03-01T03:15:54;14.38;;;9.88;;
35634;SDS011;21757;43.610;1.440;2023-03-01T03:18:23;14.52;;;9.93;;
35634;SDS011;21757;43.610;1.440;2023-03-01T03:20:52;17.65;;;9.75;;
35634;SDS011;21757;43.610;1.440;2023-03-01T03:23:21;15.75;;;9.50;;
35634;SDS011;21757;43.610;1.440;2023-03-01T03:25:48;17.10;;;10.07;;
35634;SDS011;21757;43.610;1.440;2023-03-01T03:28:14;15.90;;;10.90;;
35634;SDS011;21757;43.610;1.440;2023-03-01T03:30:41;16.25;;;9.93;;
35634;SDS011;21757;43.610;1.440;2023-03-01T03:33:07;18.88;;;10.70;;
35634;SDS011;21757;43.610;1.440;2023-03-01T03:35:38;16.08;;;10.43;;
35634;SDS011;21757;43.610;1.440;2023-03-01T03:38:12;17.35;;;9.70;;
35634;SDS011;21757;43.610;1.440;2023-03-01T03:41:01;14.55;;;8.15;;
35634;SDS011;21757;43.610;1.440;2023-03-01T03:43:31;19.35;;;12.68;;
35634;SDS011;21757;43.610;1.440;2023-03-01T03:45:58;19.40;;;12.75;;
35634;SDS011;21757;43.610;1.440;2023-03-01T03:48:24;22.05;;;14.02;;
35634;SDS011;21757;43.610;1.440;2023-03-01T03:50:51;22.17;;;13.77;;
35634;SDS011;21757;43.610;1.440;2023-03-01T03:53:19;22.38;;;14.65;;
35634;SDS011;21757;43.610;1.440;2023-03-01T03:55:46;22.40;;;14.05;;
35634;SDS011;21757;43.610;1.440;2023-03-01T03:58:14;25.35;;;13.65;;
35634;SDS011;21757;43.610;1.440;2023-03-01T04:00:42;22.70;;;14.07;;
35634;SDS011;21757;43.610;1.440;2023-03-01T04:03:10;22.90;;;14.70;;
35634;SDS011;21757;43.610;1.440;2023-03-01T04:05:37;21.95;;;14.55;;
35634;SDS011;21757;43.610;1.440;2023-03-01T04:08:04;22.73;;;14.50;;
35634;SDS011;21757;43.610;1.440;2023-03-01T04:10:37;21.60;;;14.55;;
35634;SDS011;21757;43.610;1.440;2023-03-01T04:13:07;22.08;;;14.23;;
35634;SDS011;21757;43.610;1.440;2023-03-01T04:15:37;22.55;;;13.68;;
35634;SDS011;21757;43.610;1.440;2023-03-01T04:18:04;22.83;;;14.40;;
35634;SDS011;21757;43.610;1.440;2023-03-01T04:20:31;23.17;;;14.30;;
35634;SDS011;21757;43.610;1.440;2023-03-01T04:23:06;22.08;;;14.23;;
35634;SDS011;21757;43.610;1.440;2023-03-01T04:28:08;20.58;;;12.85;;
35634;SDS011;21757;43.610;1.440;2023-03-01T04:30:35;22.23;;;13.93;;
35634;SDS011;21757;43.610;1.440;2023-03-01T04:33:02;21.13;;;12.90;;
35634;SDS011;21757;43.610;1.440;2023-03-01T04:35:29;22.27;;;12.88;;
35634;SDS011;21757;43.610;1.440;2023-03-01T04:37:55;26.20;;;13.77;;
35634;SDS011;21757;43.610;1.440;2023-03-01T04:40:21;23.80;;;14.00;;
35634;SDS011;21757;43.610;1.440;2023-03-01T04:42:47;23.05;;;13.45;;
35634;SDS011;21757;43.610;1.440;2023-03-01T04:45:12;32.38;;;14.18;;
35634;SDS011;21757;43.610;1.440;2023-03-01T04:47:39;21.83;;;13.73;;
35634;SDS011;21757;43.610;1.440;2023-03-01T04:50:06;79.53;;;19.15;;
35634;SDS011;21757;43.610;1.440;2023-03-01T04:52:32;24.25;;;14.52;;
35634;SDS011;21757;43.610;1.440;2023-03-01T04:54:59;23.50;;;13.13;;
35634;SDS011;21757;43.610;1.440;2023-03-01T04:57:24;33.40;;;14.55;;
35634;SDS011;21757;43.610;1.440;2023-03-01T04:59:50;33.97;;;14.05;;
35634;SDS011;21757;43.610;1.440;2023-03-01T05:02:16;32.15;;;14.68;;
35634;SDS011;21757;43.610;1.440;2023-03-01T05:04:41;21.50;;;13.75;;
35634;SDS011;21757;43.610;1.440;2023-03-01T05:07:07;24.80;;;14.27;;
35634;SDS011;21757;43.610;1.440;2023-03-01T05:09:33;25.73;;;14.73;;
35634;SDS011;21757;43.610;1.440;2023-03-01T05:11:59;24.15;;;14.13;;
35634;SDS011;21757;43.610;1.440;2023-03-01T05:14:25;22.60;;;13.60;;
35634;SDS011;21757;43.610;1.440;2023-03-01T05:16:50;24.08;;;14.10;;
35634;SDS011;21757;43.610;1.440;2023-03-01T05:19:16;19.88;;;12.93;;
35634;SDS011;21757;43.610;1.440;2023-03-01T05:21:47;25.17;;;14.13;;
35634;SDS011;21757;43.610;1.440;2023-03-01T05:24:29;22.50;;;14.00;;
35634;SDS011;21757;43.610;1.440;2023-03-01T05:26:57;22.40;;;14.60;;
35634;SDS011;21757;43.610;1.440;2023-03-01T05:29:23;23.50;;;13.55;;
35634;SDS011;21757;43.610;1.440;2023-03-01T05:31:53;21.17;;;13.40;;
35634;SDS011;21757;43.610;1.440;2023-03-01T05:34:27;21.48;;;13.80;;
35634;SDS011;21757;43.610;1.440;2023-03-01T05:36:55;23.25;;;14.18;;
35634;SDS011;21757;43.610;1.440;2023-03-01T05:39:21;24.30;;;13.20;;
35634;SDS011;21757;43.610;1.440;2023-03-01T05:41:51;21.00;;;13.43;;
35634;SDS011;21757;43.610;1.440;2023-03-01T05:44:18;24.65;;;14.27;;
35634;SDS011;21757;43.610;1.440;2023-03-01T05:46:44;21.90;;;14.00;;
35634;SDS011;21757;43.610;1.440;2023-03-01T05:49:10;26.08;;;14.48;;
35634;SDS011;21757;43.610;1.440;2023-03-01T05:51:38;22.63;;;14.95;;
35634;SDS011;21757;43.610;1.440;2023-03-01T05:54:06;23.10;;;14.88;;
35634;SDS011;21757;43.610;1.440;2023-03-01T05:56:33;24.70;;;14.63;;
35634;SDS011;21757;43.610;1.440;2023-03-01T05:58:59;23.85;;;15.02;;
35634;SDS011;21757;43.610;1.440;2023-03-01T06:01:26;22.23;;;14.52;;
35634;SDS011;21757;43.610;1.440;2023-03-01T06:03:51;24.63;;;14.93;;
35634;SDS011;21757;43.610;1.440;2023-03-01T06:06:17;23.10;;;14.65;;
35634;SDS011;21757;43.610;1.440;2023-03-01T06:08:43;22.50;;;13.82;;
35634;SDS011;21757;43.610;1.440;2023-03-01T06:11:09;22.30;;;14.02;;
35634;SDS011;21757;43.610;1.440;2023-03-01T06:13:34;24.25;;;14.55;;
35634;SDS011;21757;43.610;1.440;2023-03-01T06:16:00;22.17;;;13.20;;
35634;SDS011;21757;43.610;1.440;2023-03-01T06:18:29;24.38;;;14.15;;
35634;SDS011;21757;43.610;1.440;2023-03-01T06:20:54;22.23;;;13.27;;
35634;SDS011;21757;43.610;1.440;2023-03-01T06:23:21;22.70;;;14.75;;
35634;SDS011;21757;43.610;1.440;2023-03-01T06:25:47;21.13;;;14.05;;
35634;SDS011;21757;43.610;1.440;2023-03-01T06:28:13;21.27;;;14.13;;
35634;SDS011;21757;43.610;1.440;2023-03-01T06:30:39;22.85;;;13.73;;
35634;SDS011;21757;43.610;1.440;2023-03-01T06:33:04;23.80;;;13.68;;
35634;SDS011;21757;43.610;1.440;2023-03-01T06:35:30;23.38;;;14.95;;
35634;SDS011;21757;43.610;1.440;2023-03-01T06:37:56;22.45;;;13.82;;
35634;SDS011;21757;43.610;1.440;2023-03-01T06:40:22;27.60;;;13.98;;
35634;SDS011;21757;43.610;1.440;2023-03-01T06:42:49;25.02;;;13.68;;
35634;SDS011;21757;43.610;1.440;2023-03-01T06:45:15;21.05;;;13.93;;
35634;SDS011;21757;43.610;1.440;2023-03-01T06:47:42;23.05;;;14.23;;
35634;SDS011;21757;43.610;1.440;2023-03-01T06:50:08;23.15;;;14.70;;
35634;SDS011;21757;43.610;1.440;2023-03-01T06:52:34;21.17;;;14.55;;
35634;SDS011;21757;43.610;1.440;2023-03-01T06:55:00;25.08;;;14.48;;
35634;SDS011;21757;43.610;1.440;2023-03-01T06:57:25;24.27;;;14.88;;
35634;SDS011;21757;43.610;1.440;2023-03-01T06:59:51;21.77;;;14.70;;
35634;SDS011;21757;43.610;1.440;2023-03-01T07:02:17;25.27;;;14.20;;
35634;SDS011;21757;43.610;1.440;2023-03-01T07:04:43;22.65;;;13.80;;
35634;SDS011;21757;43.610;1.440;2023-03-01T07:07:08;24.25;;;13.68;;
35634;SDS011;21757;43.610;1.440;2023-03-01T07:09:34;23.60;;;14.63;;
35634;SDS011;21757;43.610;1.440;2023-03-01T07:12:00;25.30;;;15.00;;
35634;SDS011;21757;43.610;1.440;2023-03-01T07:14:26;27.67;;;14.93;;
35634;SDS011;21757;43.610;1.440;2023-03-01T07:16:53;23.95;;;14.15;;
35634;SDS011;21757;43.610;1.440;2023-03-01T07:19:19;23.48;;;13.82;;
35634;SDS011;21757;43.610;1.440;2023-03-01T07:21:47;22.70;;;13.80;;
35634;SDS011;21757;43.610;1.440;2023-03-01T07:24:14;23.05;;;13.77;;
35634;SDS011;21757;43.610;1.440;2023-03-01T07:26:40;20.60;;;13.60;;
35634;SDS011;21757;43.610;1.440;2023-03-01T07:29:06;21.95;;;13.68;;
35634;SDS011;21757;43.610;1.440;2023-03-01T07:31:33;19.90;;;13.40;;
35634;SDS011;21757;43.610;1.440;2023-03-01T07:33:59;23.73;;;13.32;;
35634;SDS011;21757;43.610;1.440;2023-03-01T07:36:24;21.92;;;13.10;;
35634;SDS011;21757;43.610;1.440;2023-03-01T07:38:50;19.73;;;12.70;;
35634;SDS011;21757;43.610;1.440;2023-03-01T07:41:16;22.40;;;13.43;;
35634;SDS011;21757;43.610;1.440;2023-03-01T07:43:42;22.98;;;13.20;;
35634;SDS011;21757;43.610;1.440;2023-03-01T07:46:08;17.13;;;12.43;;
35634;SDS011;21757;43.610;1.440;2023-03-01T07:48:34;19.75;;;13.23;;
35634;SDS011;21757;43.610;1.440;2023-03-01T07:51:01;21.65;;;13.27;;
35634;SDS011;21757;43.610;1.440;2023-03-01T07:53:27;18.10;;;12.82;;
35634;SDS011;21757;43.610;1.440;2023-03-01T07:56:05;20.23;;;12.98;;
35634;SDS011;21757;43.610;1.440;2023-03-01T07:58:36;28.42;;;15.32;;
35634;SDS011;21757;43.610;1.440;2023-03-01T08:01:04;29.70;;;14.77;;
35634;SDS011;21757;43.610;1.440;2023-03-01T08:03:31;31.60;;;15.70;;
35634;SDS011;21757;43.610;1.440;2023-03-01T08:06:04;31.73;;;15.85;;
35634;SDS011;21757;43.610;1.440;2023-03-01T08:08:32;31.40;;;16.85;;
35634;SDS011;21757;43.610;1.440;2023-03-01T08:10:58;30.92;;;16.73;;
35634;SDS011;21757;43.610;1.440;2023-03-01T08:13:25;28.25;;;14.93;;
35634;SDS011;21757;43.610;1.440;2023-03-01T08:15:51;22.05;;;13.45;;
35634;SDS011;21757;43.610;1.440;2023-03-01T08:18:18;18.08;;;12.63;;
35634;SDS011;21757;43.610;1.440;2023-03-01T08:20:45;25.60;;;14.27;;
35634;SDS011;21757;43.610;1.440;2023-03-01T08:23:11;31.13;;;15.82;;
35634;SDS011;21757;43.610;1.440;2023-03-01T08:25:37;24.15;;;14.80;;
35634;SDS011;21757;43.610;1.440;2023-03-01T08:28:03;29.33;;;15.82;;
35634;SDS011;21757;43.610;1.440;2023-03-01T08:30:29;28.95;;;15.52;;
35634;SDS011;21757;43.610;1.440;2023-03-01T08:32:54;20.42;;;14.45;;
35634;SDS011;21757;43.610;1.440;2023-03-01T08:35:20;19.23;;;12.73;;
35634;SDS011;21757;43.610;1.440;2023-03-01T08:37:46;19.92;;;13.82;;
35634;SDS011;21757;43.610;1.440;2023-03-01T08:40:12;19.98;;;12.48;;
35634;SDS011;21757;43.610;1.440;2023-03-01T08:42:39;19.85;;;13.07;;
35634;SDS011;21757;43.610;1.440;2023-03-01T08:45:08;20.85;;;13.43;;
35634;SDS011;21757;43.610;1.440;2023-03-01T08:47:35;19.60;;;12.90;;
35634;SDS011;21757;43.610;1.440;2023-03-01T08:50:01;22.73;;;13.18;;
35634;SDS011;21757;43.610;1.440;2023-03-01T08:52:27;20.35;;;14.32;;
35634;SDS011;21757;43.610;1.440;2023-03-01T08:54:55;19.92;;;12.23;;
35634;SDS011;21757;43.610;1.440;2023-03-01T08:57:21;26.00;;;14.27;;
35634;SDS011;21757;43.610;1.440;2023-03-01T08:59:47;19.73;;;13.13;;
35634;SDS011;21757;43.610;1.440;2023-03-01T09:02:14;18.20;;;12.82;;
35634;SDS011;21757;43.610;1.440;2023-03-01T09:04:41;22.35;;;12.20;;
35634;SDS011;21757;43.610;1.440;2023-03-01T09:07:07;20.30;;;13.32;;
35634;SDS011;21757;43.610;1.440;2023-03-01T09:09:33;22.98;;;13.82;;
35634;SDS011;21757;43.610;1.440;2023-03-01T09:11:59;19.80;;;13.05;;
35634;SDS011;21757;43.610;1.440;2023-03-01T09:14:25;18.52;;;11.98;;
35634;SDS011;21757;43.610;1.440;2023-03-01T09:16:51;19.38;;;11.98;;
35634;SDS011;21757;43.610;1.440;2023-03-01T09:19:17;17.23;;;11.93;;
35634;SDS011;21757;43.610;1.440;2023-03-01T09:21:43;17.45;;;11.50;;
35634;SDS011;21757;43.610;1.440;2023-03-01T09:24:19;16.23;;;11.55;;
35634;SDS011;21757;43.610;1.440;2023-03-01T09:26:46;19.27;;;11.00;;
35634;SDS011;21757;43.610;1.440;2023-03-01T09:29:12;13.82;;;9.38;;
35634;SDS011;21757;43.610;1.440;2023-03-01T09:31:40;14.02;;;9.75;;
35634;SDS011;21757;43.610;1.440;2023-03-01T09:34:06;11.90;;;9.32;;
35634;SDS011;21757;43.610;1.440;2023-03-01T09:36:33;14.95;;;10.13;;
35634;SDS011;21757;43.610;1.440;2023-03-01T09:38:59;11.70;;;9.32;;
35634;SDS011;21757;43.610;1.440;2023-03-01T09:41:42;20.52;;;10.13;;
35634;SDS011;21757;43.610;1.440;2023-03-01T09:49:25;12.07;;;8.65;;
35634;SDS011;21757;43.610;1.440;2023-03-01T09:52:01;16.05;;;9.73;;
35634;SDS011;21757;43.610;1.440;2023-03-01T09:54:44;16.60;;;10.20;;
35634;SDS011;21757;43.610;1.440;2023-03-01T10:04:55;13.10;;;8.32;;
35634;SDS011;21757;43.610;1.440;2023-03-01T10:07:49;14.48;;;8.93;;
35634;SDS011;21757;43.610;1.440;2023-03-01T10:13:22;21.08;;;8.80;;
35634;SDS011;21757;43.610;1.440;2023-03-01T10:15:54;12.07;;;8.15;;
35634;SDS011;21757;43.610;1.440;2023-03-01T10:18:47;12.02;;;8.52;;
35634;SDS011;21757;43.610;1.440;2023-03-01T10:21:20;11.55;;;8.02;;
35634;SDS011;21757;43.610;1.440;2023-03-01T10:23:46;11.77;;;7.63;;
35634;SDS011;21757;43.610;1.440;2023-03-01T10:29:02;13.68;;;8.25;;
35634;SDS011;21757;43.610;1.440;2023-03-01T10:31:41;11.73;;;8.23;;
35634;SDS011;21757;43.610;1.440;2023-03-01T10:34:13;11.02;;;7.18;;
35634;SDS011;21757;43.610;1.440;2023-03-01T10:36:41;10.60;;;7.60;;
35634;SDS011;21757;43.610;1.440;2023-03-01T10:39:12;14.20;;;8.23;;
35634;SDS011;21757;43.610;1.440;2023-03-01T10:41:53;11.65;;;8.80;;
35634;SDS011;21757;43.610;1.440;2023-03-01T10:44:36;11.35;;;7.70;;
35634;SDS011;21757;43.610;1.440;2023-03-01T10:52:55;9.70;;;7.45;;
35634;SDS011;21757;43.610;1.440;2023-03-01T10:55:35;11.88;;;8.13;;
35634;SDS011;21757;43.610;1.440;2023-03-01T10:58:06;10.25;;;7.80;;
35634;SDS011;21757;43.610;1.440;2023-03-01T11:03:32;9.02;;;7.03;;
35634;SDS011;21757;43.610;1.440;2023-03-01T11:06:02;9.68;;;7.63;;
35634;SDS011;21757;43.610;1.440;2023-03-01T11:08:45;11.20;;;7.90;;
35634;SDS011;21757;43.610;1.440;2023-03-01T11:16:45;11.45;;;8.27;;
35634;SDS011;21757;43.610;1.440;2023-03-01T11:24:27;12.82;;;8.55;;
35634;SDS011;21757;43.610;1.440;2023-03-01T11:27:35;10.90;;;8.03;;
35634;SDS011;21757;43.610;1.440;2023-03-01T11:32:46;12.90;;;8.48;;
35634;SDS011;21757;43.610;1.440;2023-03-01T11:35:25;10.45;;;7.78;;
35634;SDS011;21757;43.610;1.440;2023-03-01T11:38:06;12.23;;;7.93;;
35634;SDS011;21757;43.610;1.440;2023-03-01T11:40:44;11.88;;;8.05;;
35634;SDS011;21757;43.610;1.440;2023-03-01T11:46:09;9.57;;;7.35;;
35634;SDS011;21757;43.610;1.440;2023-03-01T11:51:52;7.97;;;6.43;;
35634;SDS011;21757;43.610;1.440;2023-03-01T11:57:18;10.13;;;5.97;;
35634;SDS011;21757;43.610;1.440;2023-03-01T12:14:45;7.60;;;5.80;;
35634;SDS011;21757;43.610;1.440;2023-03-01T12:22:44;8.98;;;6.25;;
35634;SDS011;21757;43.610;1.440;2023-03-01T12:25:34;8.25;;;6.22;;
35634;SDS011;21757;43.610;1.440;2023-03-01T12:28:09;12.35;;;7.20;;
35634;SDS011;21757;43.610;1.440;2023-03-01T12:33:51;9.40;;;6.68;;
35634;SDS011;21757;43.610;1.440;2023-03-01T12:41:43;11.18;;;7.55;;
35634;SDS011;21757;43.610;1.440;2023-03-01T12:50:00;10.82;;;6.70;;
35634;SDS011;21757;43.610;1.440;2023-03-01T12:52:49;8.98;;;6.75;;
35634;SDS011;21757;43.610;1.440;2023-03-01T12:55:35;9.82;;;6.63;;
35634;SDS011;21757;43.610;1.440;2023-03-01T13:04:02;11.23;;;6.88;;
35634;SDS011;21757;43.610;1.440;2023-03-01T13:06:35;7.18;;;6.40;;
35634;SDS011;21757;43.610;1.440;2023-03-01T13:15:31;9.32;;;6.45;;
35634;SDS011;21757;43.610;1.440;2023-03-01T13:18:31;8.07;;;6.20;;
35634;SDS011;21757;43.610;1.440;2023-03-01T13:20:59;8.82;;;6.20;;
35634;SDS011;21757;43.610;1.440;2023-03-01T13:23:30;6.82;;;5.53;;
35634;SDS011;21757;43.610;1.440;2023-03-01T13:26:02;7.93;;;6.40;;
35634;SDS011;21757;43.610;1.440;2023-03-01T13:36:06;7.53;;;5.75;;
35634;SDS011;21757;43.610;1.440;2023-03-01T13:41:14;7.25;;;6.07;;
35634;SDS011;21757;43.610;1.440;2023-03-01T13:43:41;10.50;;;6.57;;
35634;SDS011;21757;43.610;1.440;2023-03-01T13:46:10;7.47;;;6.03;;
35634;SDS011;21757;43.610;1.440;2023-03-01T13:48:48;8.80;;;6.07;;
35634;SDS011;21757;43.610;1.440;2023-03-01T13:51:20;10.75;;;6.50;;
35634;SDS011;21757;43.610;1.440;2023-03-01T13:53:50;8.43;;;6.70;;
35634;SDS011;21757;43.610;1.440;2023-03-01T13:56:27;9.50;;;5.85;;
35634;SDS011;21757;43.610;1.440;2023-03-01T13:58:55;10.05;;;6.70;;
35634;SDS011;21757;43.610;1.440;2023-03-01T14:01:28;7.85;;;5.93;;
35634;SDS011;21757;43.610;1.440;2023-03-01T14:03:59;8.82;;;6.32;;
35634;SDS011;21757;43.610;1.440;2023-03-01T14:06:26;11.20;;;7.20;;
35634;SDS011;21757;43.610;1.440;2023-03-01T14:09:04;11.05;;;6.68;;
35634;SDS011;21757;43.610;1.440;2023-03-01T14:25:05;12.90;;;8.00;;
35634;SDS011;21757;43.610;1.440;2023-03-01T14:27:44;8.38;;;6.43;;
35634;SDS011;21757;43.610;1.440;2023-03-01T14:30:25;10.10;;;7.07;;
35634;SDS011;21757;43.610;1.440;2023-03-01T14:32:59;9.00;;;6.93;;
35634;SDS011;21757;43.610;1.440;2023-03-01T14:35:28;9.77;;;7.50;;
35634;SDS011;21757;43.610;1.440;2023-03-01T14:37:56;9.18;;;7.15;;
35634;SDS011;21757;43.610;1.440;2023-03-01T14:40:29;8.15;;;6.55;;
35634;SDS011;21757;43.610;1.440;2023-03-01T14:42:56;10.32;;;7.13;;
35634;SDS011;21757;43.610;1.440;2023-03-01T14:45:25;11.32;;;6.65;;
35634;SDS011;21757;43.610;1.440;2023-03-01T14:47:53;8.82;;;7.15;;
35634;SDS011;21757;43.610;1.440;2023-03-01T14:50:28;10.80;;;6.60;;
35634;SDS011;21757;43.610;1.440;2023-03-01T14:52:58;9.75;;;7.05;;
35634;SDS011;21757;43.610;1.440;2023-03-01T14:55:30;8.85;;;6.65;;
35634;SDS011;21757;43.610;1.440;2023-03-01T14:58:05;10.80;;;6.70;;
35634;SDS011;21757;43.610;1.440;2023-03-01T15:00:36;7.50;;;6.53;;
35634;SDS011;21757;43.610;1.440;2023-03-01T15:03:07;8.27;;;6.25;;
35634;SDS011;21757;43.610;1.440;2023-03-01T15:05:38;9.05;;;7.25;;
35634;SDS011;21757;43.610;1.440;2023-03-01T15:08:05;9.10;;;6.57;;
35634;SDS011;21757;43.610;1.440;2023-03-01T15:10:32;8.60;;;6.03;;
35634;SDS011;21757;43.610;1.440;2023-03-01T15:13:22;9.82;;;6.70;;
35634;SDS011;21757;43.610;1.440;2023-03-01T15:15:48;9.27;;;6.90;;
35634;SDS011;21757;43.610;1.440;2023-03-01T15:20:50;8.75;;;6.50;;
35634;SDS011;21757;43.610;1.440;2023-03-01T15:25:48;7.60;;;6.40;;
35634;SDS011;21757;43.610;1.440;2023-03-01T15:28:28;11.95;;;6.90;;
35634;SDS011;21757;43.610;1.440;2023-03-01T15:31:21;8.88;;;6.50;;
35634;SDS011;21757;43.610;1.440;2023-03-01T15:33:49;8.20;;;6.30;;
35634;SDS011;21757;43.610;1.440;2023-03-01T15:37:01;9.75;;;6.57;;
35634;SDS011;21757;43.610;1.440;2023-03-01T15:42:02;10.77;;;6.93;;
35634;SDS011;21757;43.610;1.440;2023-03-01T15:44:37;10.17;;;6.83;;
35634;SDS011;21757;43.610;1.440;2023-03-01T15:47:27;8.18;;;6.43;;
35634;SDS011;21757;43.610;1.440;2023-03-01T15:49:57;8.27;;;6.57;;
35634;SDS011;21757;43.610;1.440;2023-03-01T15:52:26;8.80;;;6.40;;
35634;SDS011;21757;43.610;1.440;2023-03-01T15:54:56;7.95;;;6.43;;
35634;SDS011;21757;43.610;1.440;2023-03-01T15:57:27;8.43;;;6.82;;
35634;SDS011;21757;43.610;1.440;2023-03-01T15:59:53;11.05;;;6.78;;
35634;SDS011;21757;43.610;1.440;2023-03-01T16:02:20;9.93;;;6.38;;
35634;SDS011;21757;43.610;1.440;2023-03-01T16:04:47;10.75;;;6.57;;
35634;SDS011;21757;43.610;1.440;2023-03-01T16:07:16;9.73;;;6.43;;
35634;SDS011;21757;43.610;1.440;2023-03-01T16:09:41;7.82;;;5.75;;
35634;SDS011;21757;43.610;1.440;2023-03-01T16:12:17;8.05;;;6.28;;
35634;SDS011;21757;43.610;1.440;2023-03-01T16:14:45;14.85;;;7.20;;
35634;SDS011;21757;43.610;1.440;2023-03-01T16:17:11;9.23;;;6.53;;
35634;SDS011;21757;43.610;1.440;2023-03-01T16:19:37;7.75;;;6.32;;
35634;SDS011;21757;43.610;1.440;2023-03-01T16:22:04;10.18;;;6.82;;
35634;SDS011;21757;43.610;1.440;2023-03-01T16:24:29;11.48;;;6.75;;
35634;SDS011;21757;43.610;1.440;2023-03-01T16:26:55;9.02;;;6.72;;
35634;SDS011;21757;43.610;1.440;2023-03-01T16:29:21;8.73;;;7.10;;
35634;SDS011;21757;43.610;1.440;2023-03-01T16:31:47;11.45;;;7.00;;
35634;SDS011;21757;43.610;1.440;2023-03-01T16:34:12;10.52;;;7.55;;
35634;SDS011;21757;43.610;1.440;2023-03-01T16:36:38;10.10;;;7.45;;
35634;SDS011;21757;43.610;1.440;2023-03-01T16:39:04;9.30;;;7.18;;
35634;SDS011;21757;43.610;1.440;2023-03-01T16:41:30;7.97;;;6.70;;
35634;SDS011;21757;43.610;1.440;2023-03-01T16:43:56;16.70;;;7.90;;
35634;SDS011;21757;43.610;1.440;2023-03-01T16:46:22;9.23;;;7.18;;
35634;SDS011;21757;43.610;1.440;2023-03-01T16:48:50;10.68;;;7.70;;
35634;SDS011;21757;43.610;1.440;2023-03-01T16:51:16;9.82;;;7.10;;
35634;SDS011;21757;43.610;1.440;2023-03-01T16:53:42;10.15;;;7.22;;
35634;SDS011;21757;43.610;1.440;2023-03-01T16:56:09;9.25;;;7.47;;
35634;SDS011;21757;43.610;1.440;2023-03-01T16:58:37;7.72;;;6.20;;
35634;SDS011;21757;43.610;1.440;2023-03-01T17:01:13;10.38;;;7.38;;
35634;SDS011;21757;43.610;1.440;2023-03-01T17:03:42;10.43;;;7.38;;
35634;SDS011;21757;43.610;1.440;2023-03-01T17:06:10;11.27;;;7.50;;
35634;SDS011;21757;43.610;1.440;2023-03-01T17:08:37;10.30;;;7.38;;